sensor_id;sensor_type;location;lat;lon;timestamp;pressure;altitude;pressure_sealevel;temperature;humidity
5703;BME280;2876;51.738;10.050;2023-04-09T00:00:34;100275.34;;;3.52;100.00
5703;BME280;2876;51.738;10.050;2023-04-09T00:06:36;100269.22;;;3.31;100.00
5703;BME280;2876;51.738;10.050;2023-04-09T00:12:38;100272.25;;;3.26;100.00
5703;BME280;2876;51.738;10.050;2023-04-09T00:18:40;100269.50;;;3.28;100.00
5703;BME280;2876;51.738;10.050;2023-04-09T00:24:42;100269.59;;;3.26;100.00
5703;BME280;2876;51.738;10.050;2023-04-09T00:30:44;100274.50;;;3.31;100.00
5703;BME280;2876;51.738;10.050;2023-04-09T00:36:46;100265.84;;;3.08;100.00
5703;BME280;2876;51.738;10.050;2023-04-09T00:42:48;100253.91;;;3.35;100.00
5703;BME280;2876;51.738;10.050;2023-04-09T00:48:50;100247.31;;;3.50;100.00
5703;BME280;2876;51.738;10.050;2023-04-09T00:54:52;100251.88;;;3.69;100.00
5703;BME280;2876;51.738;10.050;2023-04-09T01:00:55;100257.38;;;3.87;100.00
5703;BME280;2876;51.738;10.050;2023-04-09T01:14:31;100248.06;;;4.02;100.00
5703;BME280;2876;51.738;10.050;2023-04-09T01:26:58;100258.13;;;4.58;100.00
5703;BME280;2876;51.738;10.050;2023-04-09T01:33:04;100263.31;;;4.60;100.00
5703;BME280;2876;51.738;10.050;2023-04-09T01:39:07;100271.28;;;4.60;100.00
5703;BME280;2876;51.738;10.050;2023-04-09T01:45:10;100265.13;;;4.59;100.00
5703;BME280;2876;51.738;10.050;2023-04-09T01:51:13;100250.56;;;4.53;100.00
5703;BME280;2876;51.738;10.050;2023-04-09T01:57:15;100249.03;;;4.41;100.00
5703;BME280;2876;51.738;10.050;2023-04-09T02:03:31;100247.06;;;4.43;100.00
5703;BME280;2876;51.738;10.050;2023-04-09T02:09:38;100248.59;;;4.36;100.00
5703;BME280;2876;51.738;10.050;2023-04-09T02:15:41;100243.84;;;4.40;100.00
5703;BME280;2876;51.738;10.050;2023-04-09T02:21:45;100238.78;;;4.27;100.00
5703;BME280;2876;51.738;10.050;2023-04-09T02:27:47;100240.63;;;4.36;100.00
5703;BME280;2876;51.738;10.050;2023-04-09T02:33:50;100255.00;;;4.33;100.00
5703;BME280;2876;51.738;10.050;2023-04-09T02:39:52;100239.66;;;4.37;100.00
5703;BME280;2876;51.738;10.050;2023-04-09T02:45:54;100246.91;;;4.45;100.00
5703;BME280;2876;51.738;10.050;2023-04-09T02:51:56;100231.28;;;4.42;100.00
5703;BME280;2876;51.738;10.050;2023-04-09T02:57:58;100238.00;;;4.55;100.00
5703;BME280;2876;51.738;10.050;2023-04-09T03:04:00;100240.94;;;4.62;100.00
5703;BME280;2876;51.738;10.050;2023-04-09T03:10:03;100233.09;;;4.61;100.00
5703;BME280;2876;51.738;10.050;2023-04-09T03:16:05;100238.44;;;4.70;100.00
5703;BME280;2876;51.738;10.050;2023-04-09T03:22:08;100229.88;;;4.67;100.00
5703;BME280;2876;51.738;10.050;2023-04-09T03:28:09;100222.22;;;4.73;100.00
5703;BME280;2876;51.738;10.050;2023-04-09T03:34:11;100231.28;;;4.71;100.00
5703;BME280;2876;51.738;10.050;2023-04-09T03:40:13;100228.22;;;4.66;100.00
5703;BME280;2876;51.738;10.050;2023-04-09T03:46:17;100230.19;;;4.64;100.00
5703;BME280;2876;51.738;10.050;2023-04-09T03:52:19;100221.06;;;4.56;100.00
5703;BME280;2876;51.738;10.050;2023-04-09T03:58:21;100229.31;;;4.53;100.00
5703;BME280;2876;51.738;10.050;2023-04-09T04:04:23;100226.25;;;4.48;100.00
5703;BME280;2876;51.738;10.050;2023-04-09T04:10:25;100229.59;;;4.41;100.00
5703;BME280;2876;51.738;10.050;2023-04-09T04:16:27;100233.38;;;4.48;100.00
5703;BME280;2876;51.738;10.050;2023-04-09T04:22:29;100233.78;;;4.33;100.00
5703;BME280;2876;51.738;10.050;2023-04-09T04:28:31;100236.69;;;4.30;100.00
5703;BME280;2876;51.738;10.050;2023-04-09T04:34:33;100239.59;;;4.18;100.00
5703;BME280;2876;51.738;10.050;2023-04-09T04:40:35;100238.88;;;4.06;100.00
5703;BME280;2876;51.738;10.050;2023-04-09T04:46:37;100245.41;;;3.92;100.00
5703;BME280;2876;51.738;10.050;2023-04-09T04:52:39;100245.28;;;4.03;100.00
5703;BME280;2876;51.738;10.050;2023-04-09T04:58:41;100240.94;;;4.02;100.00
5703;BME280;2876;51.738;10.050;2023-04-09T05:04:44;100250.53;;;4.24;100.00
5703;BME280;2876;51.738;10.050;2023-04-09T05:10:45;100248.63;;;4.46;100.00
5703;BME280;2876;51.738;10.050;2023-04-09T05:16:47;100251.84;;;4.59;100.00
5703;BME280;2876;51.738;10.050;2023-04-09T05:22:49;100261.34;;;4.62;100.00
5703;BME280;2876;51.738;10.050;2023-04-09T05:28:51;100257.03;;;4.80;100.00
5703;BME280;2876;51.738;10.050;2023-04-09T05:34:54;100257.84;;;4.90;100.00
5703;BME280;2876;51.738;10.050;2023-04-09T05:40:56;100258.00;;;4.98;100.00
5703;BME280;2876;51.738;10.050;2023-04-09T05:46:58;100262.34;;;4.99;100.00
5703;BME280;2876;51.738;10.050;2023-04-09T05:53:00;100271.56;;;5.15;100.00
5703;BME280;2876;51.738;10.050;2023-04-09T05:59:02;100275.72;;;5.46;100.00
5703;BME280;2876;51.738;10.050;2023-04-09T06:05:04;100275.97;;;5.63;100.00
5703;BME280;2876;51.738;10.050;2023-04-09T06:11:10;100275.81;;;5.74;100.00
5703;BME280;2876;51.738;10.050;2023-04-09T06:17:13;100276.16;;;5.98;99.68
5703;BME280;2876;51.738;10.050;2023-04-09T06:23:15;100280.50;;;5.99;99.31
5703;BME280;2876;51.738;10.050;2023-04-09T06:29:17;100276.25;;;6.06;99.23
5703;BME280;2876;51.738;10.050;2023-04-09T06:35:19;100287.19;;;6.41;99.74
5703;BME280;2876;51.738;10.050;2023-04-09T06:41:22;100288.28;;;6.66;98.40
5703;BME280;2876;51.738;10.050;2023-04-09T06:47:24;100279.63;;;6.81;98.23
5703;BME280;2876;51.738;10.050;2023-04-09T06:53:26;100284.00;;;7.08;96.94
5703;BME280;2876;51.738;10.050;2023-04-09T06:59:28;100283.50;;;7.49;92.88
5703;BME280;2876;51.738;10.050;2023-04-09T07:05:30;100282.47;;;7.42;93.58
5703;BME280;2876;51.738;10.050;2023-04-09T07:11:32;100288.59;;;7.60;92.19
5703;BME280;2876;51.738;10.050;2023-04-09T07:17:34;100284.78;;;7.62;92.57
5703;BME280;2876;51.738;10.050;2023-04-09T07:23:36;100287.59;;;7.61;91.00
5703;BME280;2876;51.738;10.050;2023-04-09T07:29:38;100286.78;;;7.60;91.26
5703;BME280;2876;51.738;10.050;2023-04-09T07:35:44;100287.56;;;7.79;91.39
5703;BME280;2876;51.738;10.050;2023-04-09T07:41:46;100280.78;;;7.67;91.16
5703;BME280;2876;51.738;10.050;2023-04-09T07:47:49;100294.94;;;8.19;89.94
5703;BME280;2876;51.738;10.050;2023-04-09T07:53:51;100299.13;;;8.22;89.99
5703;BME280;2876;51.738;10.050;2023-04-09T07:59:54;100289.94;;;8.50;89.55
5703;BME280;2876;51.738;10.050;2023-04-09T08:05:56;100295.72;;;8.96;88.63
5703;BME280;2876;51.738;10.050;2023-04-09T08:11:58;100295.84;;;8.95;87.30
5703;BME280;2876;51.738;10.050;2023-04-09T08:18:00;100299.91;;;9.23;86.65
5703;BME280;2876;51.738;10.050;2023-04-09T08:24:05;100306.25;;;9.06;85.24
5703;BME280;2876;51.738;10.050;2023-04-09T08:30:08;100308.63;;;9.09;85.21
5703;BME280;2876;51.738;10.050;2023-04-09T08:36:10;100305.91;;;9.01;86.12
5703;BME280;2876;51.738;10.050;2023-04-09T08:42:14;100306.59;;;9.19;85.51
5703;BME280;2876;51.738;10.050;2023-04-09T08:48:17;100315.97;;;9.48;86.13
5703;BME280;2876;51.738;10.050;2023-04-09T08:54:20;100311.56;;;9.96;84.02
5703;BME280;2876;51.738;10.050;2023-04-09T09:00:22;100317.06;;;10.02;82.58
5703;BME280;2876;51.738;10.050;2023-04-09T09:06:27;100317.56;;;10.14;83.46
5703;BME280;2876;51.738;10.050;2023-04-09T09:12:35;100311.34;;;10.61;81.42
5703;BME280;2876;51.738;10.050;2023-04-09T09:18:42;100322.69;;;10.71;80.32
5703;BME280;2876;51.738;10.050;2023-04-09T09:24:50;100316.47;;;11.02;79.02
5703;BME280;2876;51.738;10.050;2023-04-09T09:30:52;100320.13;;;11.32;77.13
5703;BME280;2876;51.738;10.050;2023-04-09T09:36:55;100317.59;;;11.53;76.12
5703;BME280;2876;51.738;10.050;2023-04-09T09:42:57;100316.38;;;11.79;75.02
5703;BME280;2876;51.738;10.050;2023-04-09T09:48:59;100315.66;;;12.44;74.14
5703;BME280;2876;51.738;10.050;2023-04-09T09:55:04;100307.59;;;12.44;70.56
5703;BME280;2876;51.738;10.050;2023-04-09T10:01:09;100315.09;;;13.00;70.10
5703;BME280;2876;51.738;10.050;2023-04-09T10:07:13;100304.13;;;13.01;69.33
5703;BME280;2876;51.738;10.050;2023-04-09T10:13:25;100303.44;;;13.57;68.74
5703;BME280;2876;51.738;10.050;2023-04-09T10:19:38;100293.97;;;13.95;66.35
5703;BME280;2876;51.738;10.050;2023-04-09T10:25:42;100299.25;;;15.00;60.81
5703;BME280;2876;51.738;10.050;2023-04-09T10:32:03;100295.75;;;15.19;60.96
5703;BME280;2876;51.738;10.050;2023-04-09T10:38:09;100288.22;;;14.94;56.96
5703;BME280;2876;51.738;10.050;2023-04-09T10:44:24;100278.91;;;15.04;57.02
5703;BME280;2876;51.738;10.050;2023-04-09T10:50:32;100273.31;;;15.58;54.15
5703;BME280;2876;51.738;10.050;2023-04-09T10:56:36;100278.28;;;15.61;53.06
5703;BME280;2876;51.738;10.050;2023-04-09T11:08:43;100278.16;;;21.24;39.19
5703;BME280;2876;51.738;10.050;2023-04-09T11:14:45;100284.44;;;23.77;35.04
5703;BME280;2876;51.738;10.050;2023-04-09T11:20:47;100277.38;;;21.57;36.80
5703;BME280;2876;51.738;10.050;2023-04-09T11:26:49;100268.50;;;19.95;38.91
5703;BME280;2876;51.738;10.050;2023-04-09T11:32:52;100271.03;;;18.90;41.33
5703;BME280;2876;51.738;10.050;2023-04-09T11:38:55;100261.75;;;19.09;43.23
5703;BME280;2876;51.738;10.050;2023-04-09T11:44:57;100266.09;;;22.04;36.18
5703;BME280;2876;51.738;10.050;2023-04-09T11:50:59;100260.28;;;23.42;33.33
5703;BME280;2876;51.738;10.050;2023-04-09T11:57:03;100267.63;;;24.11;33.08
5703;BME280;2876;51.738;10.050;2023-04-09T12:03:05;100256.03;;;20.92;36.90
5703;BME280;2876;51.738;10.050;2023-04-09T12:09:07;100258.69;;;20.35;37.55
5703;BME280;2876;51.738;10.050;2023-04-09T12:15:17;100246.31;;;20.15;38.05
5703;BME280;2876;51.738;10.050;2023-04-09T12:21:19;100231.41;;;20.18;38.03
5703;BME280;2876;51.738;10.050;2023-04-09T12:27:24;100230.09;;;18.66;39.62
5703;BME280;2876;51.738;10.050;2023-04-09T12:33:26;100211.84;;;18.07;42.55
5703;BME280;2876;51.738;10.050;2023-04-09T12:39:28;100216.97;;;17.78;43.21
5703;BME280;2876;51.738;10.050;2023-04-09T12:45:30;100197.72;;;17.11;44.28
5703;BME280;2876;51.738;10.050;2023-04-09T12:51:32;100196.94;;;17.97;43.79
5703;BME280;2876;51.738;10.050;2023-04-09T12:57:37;100191.78;;;17.89;42.90
5703;BME280;2876;51.738;10.050;2023-04-09T13:03:40;100177.19;;;17.90;42.69
5703;BME280;2876;51.738;10.050;2023-04-09T13:09:44;100167.34;;;18.26;42.59
5703;BME280;2876;51.738;10.050;2023-04-09T13:15:46;100174.81;;;21.27;38.16
5703;BME280;2876;51.738;10.050;2023-04-09T13:21:48;100175.81;;;21.38;35.95
5703;BME280;2876;51.738;10.050;2023-04-09T13:27:50;100169.25;;;20.03;37.68
5703;BME280;2876;51.738;10.050;2023-04-09T13:33:52;100165.03;;;21.15;37.04
5703;BME280;2876;51.738;10.050;2023-04-09T13:39:54;100164.47;;;23.85;32.86
5703;BME280;2876;51.738;10.050;2023-04-09T13:45:56;100166.91;;;24.49;29.86
5703;BME280;2876;51.738;10.050;2023-04-09T13:51:58;100157.97;;;24.16;31.87
5703;BME280;2876;51.738;10.050;2023-04-09T13:58:00;100157.66;;;23.97;31.42
5703;BME280;2876;51.738;10.050;2023-04-09T14:04:02;100151.81;;;21.23;33.83
5703;BME280;2876;51.738;10.050;2023-04-09T14:10:05;100145.47;;;21.01;34.90
5703;BME280;2876;51.738;10.050;2023-04-09T14:16:08;100140.22;;;20.37;36.53
5703;BME280;2876;51.738;10.050;2023-04-09T14:22:10;100137.88;;;20.29;36.21
5703;BME280;2876;51.738;10.050;2023-04-09T14:28:12;100125.03;;;19.72;38.18
5703;BME280;2876;51.738;10.050;2023-04-09T14:34:14;100125.53;;;19.46;38.08
5703;BME280;2876;51.738;10.050;2023-04-09T14:40:16;100120.44;;;18.91;38.90
5703;BME280;2876;51.738;10.050;2023-04-09T14:46:18;100125.00;;;18.79;38.96
5703;BME280;2876;51.738;10.050;2023-04-09T14:52:20;100119.19;;;19.92;37.53
5703;BME280;2876;51.738;10.050;2023-04-09T14:58:22;100122.47;;;22.89;33.84
5703;BME280;2876;51.738;10.050;2023-04-09T15:04:24;100126.84;;;26.20;28.88
5703;BME280;2876;51.738;10.050;2023-04-09T15:10:27;100130.25;;;28.20;26.41
5703;BME280;2876;51.738;10.050;2023-04-09T15:16:29;100121.31;;;27.09;26.48
5703;BME280;2876;51.738;10.050;2023-04-09T15:22:33;100116.03;;;26.78;26.66
5703;BME280;2876;51.738;10.050;2023-04-09T15:28:35;100116.03;;;26.44;27.66
5703;BME280;2876;51.738;10.050;2023-04-09T15:34:37;100098.97;;;23.36;29.92
5703;BME280;2876;51.738;10.050;2023-04-09T15:40:39;100097.91;;;22.99;32.40
5703;BME280;2876;51.738;10.050;2023-04-09T15:46:43;100098.75;;;24.10;29.71
5703;BME280;2876;51.738;10.050;2023-04-09T15:52:45;100099.72;;;24.67;29.44
5703;BME280;2876;51.738;10.050;2023-04-09T15:58:47;100089.88;;;23.77;30.34
5703;BME280;2876;51.738;10.050;2023-04-09T16:04:49;100083.06;;;23.33;31.44
5703;BME280;2876;51.738;10.050;2023-04-09T16:10:51;100083.78;;;24.99;29.67
5703;BME280;2876;51.738;10.050;2023-04-09T16:16:53;100090.34;;;24.42;30.14
5703;BME280;2876;51.738;10.050;2023-04-09T16:22:55;100090.34;;;25.39;28.37
5703;BME280;2876;51.738;10.050;2023-04-09T16:28:57;100076.72;;;23.79;30.70
5703;BME280;2876;51.738;10.050;2023-04-09T16:35:04;100068.91;;;23.51;30.80
5703;BME280;2876;51.738;10.050;2023-04-09T16:41:06;100072.25;;;24.87;29.27
5703;BME280;2876;51.738;10.050;2023-04-09T16:47:08;100067.69;;;25.73;28.68
5703;BME280;2876;51.738;10.050;2023-04-09T16:53:10;100068.16;;;25.95;28.63
5703;BME280;2876;51.738;10.050;2023-04-09T16:59:12;100068.19;;;25.90;28.65
5703;BME280;2876;51.738;10.050;2023-04-09T17:05:14;100064.72;;;25.59;30.24
5703;BME280;2876;51.738;10.050;2023-04-09T17:11:17;100061.53;;;25.26;30.83
5703;BME280;2876;51.738;10.050;2023-04-09T17:17:21;100062.88;;;23.49;33.37
5703;BME280;2876;51.738;10.050;2023-04-09T17:23:24;100055.50;;;21.06;37.81
5703;BME280;2876;51.738;10.050;2023-04-09T17:29:25;100052.31;;;18.97;41.19
5703;BME280;2876;51.738;10.050;2023-04-09T17:35:27;100050.47;;;16.74;45.20
5703;BME280;2876;51.738;10.050;2023-04-09T17:41:29;100056.13;;;14.73;51.83
5703;BME280;2876;51.738;10.050;2023-04-09T17:47:32;100057.16;;;13.64;55.81
5703;BME280;2876;51.738;10.050;2023-04-09T17:53:34;100064.59;;;12.93;58.42
5703;BME280;2876;51.738;10.050;2023-04-09T17:59:36;100045.28;;;12.12;61.23
5703;BME280;2876;51.738;10.050;2023-04-09T18:05:38;100036.94;;;11.20;64.28
5703;BME280;2876;51.738;10.050;2023-04-09T18:11:41;100046.81;;;10.60;66.56
5703;BME280;2876;51.738;10.050;2023-04-09T18:17:43;100054.94;;;10.29;67.36
5703;BME280;2876;51.738;10.050;2023-04-09T18:23:45;100055.53;;;9.85;69.13
5703;BME280;2876;51.738;10.050;2023-04-09T18:29:48;100058.09;;;9.78;69.49
5703;BME280;2876;51.738;10.050;2023-04-09T18:35:50;100063.72;;;9.60;70.24
5703;BME280;2876;51.738;10.050;2023-04-09T18:41:52;100073.28;;;9.55;70.72
5703;BME280;2876;51.738;10.050;2023-04-09T18:47:54;100068.78;;;9.47;71.14
5703;BME280;2876;51.738;10.050;2023-04-09T18:53:56;100059.44;;;9.43;71.30
5703;BME280;2876;51.738;10.050;2023-04-09T18:59:59;100065.19;;;9.32;71.58
5703;BME280;2876;51.738;10.050;2023-04-09T19:06:15;100069.63;;;9.08;71.93
5703;BME280;2876;51.738;10.050;2023-04-09T19:12:18;100076.44;;;9.11;72.07
5703;BME280;2876;51.738;10.050;2023-04-09T19:18:20;100073.47;;;8.98;72.55
5703;BME280;2876;51.738;10.050;2023-04-09T19:24:22;100062.44;;;9.09;72.53
5703;BME280;2876;51.738;10.050;2023-04-09T19:30:25;100048.84;;;9.19;72.00
5703;BME280;2876;51.738;10.050;2023-04-09T19:36:27;100055.28;;;8.85;72.90
5703;BME280;2876;51.738;10.050;2023-04-09T19:42:31;100054.81;;;8.81;73.56
5703;BME280;2876;51.738;10.050;2023-04-09T19:48:35;100052.38;;;9.03;72.57
5703;BME280;2876;51.738;10.050;2023-04-09T19:54:37;100049.91;;;8.85;72.93
5703;BME280;2876;51.738;10.050;2023-04-09T20:00:39;100045.88;;;8.97;72.62
5703;BME280;2876;51.738;10.050;2023-04-09T20:06:43;100043.22;;;8.89;72.34
5703;BME280;2876;51.738;10.050;2023-04-09T20:12:48;100054.75;;;8.98;71.90
5703;BME280;2876;51.738;10.050;2023-04-09T20:18:51;100068.16;;;8.81;72.28
5703;BME280;2876;51.738;10.050;2023-04-09T20:24:53;100073.84;;;8.78;72.63
5703;BME280;2876;51.738;10.050;2023-04-09T20:30:56;100065.69;;;8.63;72.54
5703;BME280;2876;51.738;10.050;2023-04-09T20:36:58;100059.97;;;8.67;73.17
5703;BME280;2876;51.738;10.050;2023-04-09T20:43:00;100065.84;;;8.62;73.33
5703;BME280;2876;51.738;10.050;2023-04-09T20:49:02;100061.34;;;8.38;74.06
5703;BME280;2876;51.738;10.050;2023-04-09T20:55:05;100071.66;;;8.33;74.95
5703;BME280;2876;51.738;10.050;2023-04-09T21:01:08;100070.34;;;8.29;74.79
5703;BME280;2876;51.738;10.050;2023-04-09T21:07:11;100073.03;;;8.37;75.03
5703;BME280;2876;51.738;10.050;2023-04-09T21:13:13;100067.81;;;8.11;75.38
5703;BME280;2876;51.738;10.050;2023-04-09T21:19:14;100061.13;;;8.07;76.36
5703;BME280;2876;51.738;10.050;2023-04-09T21:25:17;100058.97;;;8.19;76.42
5703;BME280;2876;51.738;10.050;2023-04-09T21:31:20;100061.31;;;8.13;76.71
5703;BME280;2876;51.738;10.050;2023-04-09T21:37:23;100059.13;;;8.17;76.45
5703;BME280;2876;51.738;10.050;2023-04-09T21:43:25;100060.47;;;8.29;76.35
5703;BME280;2876;51.738;10.050;2023-04-09T21:49:30;100067.66;;;8.29;75.98
5703;BME280;2876;51.738;10.050;2023-04-09T21:55:32;100069.19;;;8.48;75.44
5703;BME280;2876;51.738;10.050;2023-04-09T22:01:37;100064.16;;;8.28;75.46
5703;BME280;2876;51.738;10.050;2023-04-09T22:07:40;100056.66;;;8.40;75.44
5703;BME280;2876;51.738;10.050;2023-04-09T22:13:43;100054.66;;;8.50;74.83
5703;BME280;2876;51.738;10.050;2023-04-09T22:19:45;100062.84;;;8.57;74.32
5703;BME280;2876;51.738;10.050;2023-04-09T22:25:47;100073.84;;;8.54;74.70
5703;BME280;2876;51.738;10.050;2023-04-09T22:31:49;100061.03;;;8.41;74.81
5703;BME280;2876;51.738;10.050;2023-04-09T22:37:51;100056.63;;;8.24;75.47
5703;BME280;2876;51.738;10.050;2023-04-09T22:43:53;100062.19;;;8.38;74.83
5703;BME280;2876;51.738;10.050;2023-04-09T22:49:56;100070.47;;;8.11;75.22
5703;BME280;2876;51.738;10.050;2023-04-09T22:55:58;100078.81;;;8.08;75.63
5703;BME280;2876;51.738;10.050;2023-04-09T23:02:00;100082.81;;;7.96;76.24
5703;BME280;2876;51.738;10.050;2023-04-09T23:08:02;100072.16;;;7.45;77.32
5703;BME280;2876;51.738;10.050;2023-04-09T23:14:04;100072.38;;;7.18;78.99
5703;BME280;2876;51.738;10.050;2023-04-09T23:20:07;100069.56;;;6.93;79.49
5703;BME280;2876;51.738;10.050;2023-04-09T23:26:11;100063.09;;;6.96;80.28
5703;BME280;2876;51.738;10.050;2023-04-09T23:32:13;100061.09;;;6.72;80.30
5703;BME280;2876;51.738;10.050;2023-04-09T23:38:15;100058.34;;;6.81;80.74
5703;BME280;2876;51.738;10.050;2023-04-09T23:44:17;100048.50;;;6.82;80.82
5703;BME280;2876;51.738;10.050;2023-04-09T23:50:19;100044.31;;;6.79;81.25
5703;BME280;2876;51.738;10.050;2023-04-09T23:56:23;100044.00;;;6.82;81.26
